METAR Data
IDs: Format: Raw Decoded Include TAF

Data at: 1336 UTC 26 Feb 2021

LHPR 261315Z AUTO VRB02KT CAVOK 18/07 Q1026 NOSIG